createdAt,value
2018-12-13T00:00:53.816Z,0.30
2018-12-13T00:03:21.287Z,0.20
2018-12-13T00:05:48.764Z,0.20
2018-12-13T00:08:16.212Z,0.20
2018-12-13T00:10:43.656Z,0.20
2018-12-13T00:13:11.110Z,0.20
2018-12-13T00:18:06.035Z,0.20
2018-12-13T00:20:33.484Z,0.20
2018-12-13T00:25:28.389Z,0.10
2018-12-13T00:30:23.298Z,0.00
2018-12-13T00:32:50.802Z,-0.10
2018-12-13T00:35:18.266Z,-0.10
2018-12-13T00:37:45.707Z,-0.10
2018-12-13T00:40:13.244Z,-0.10
2018-12-13T00:42:40.802Z,-0.20
2018-12-13T00:47:35.703Z,-0.30
2018-12-13T00:50:03.412Z,-0.40
2018-12-13T00:54:58.327Z,-0.50
2018-12-13T00:57:25.778Z,-0.50
2018-12-13T00:59:53.234Z,-0.60
2018-12-13T01:02:20.678Z,-0.60
2018-12-13T01:04:48.141Z,-0.60
2018-12-13T01:07:15.594Z,-0.70
2018-12-13T01:09:43.124Z,-0.70
2018-12-13T01:12:10.572Z,-0.80
2018-12-13T01:14:38.022Z,-0.80
2018-12-13T01:17:05.504Z,-0.80
2018-12-13T01:19:32.973Z,-0.80
2018-12-13T01:24:27.880Z,-0.90
2018-12-13T01:26:55.338Z,-1.00
2018-12-13T01:29:22.792Z,-1.00
2018-12-13T01:31:50.319Z,-1.00
2018-12-13T01:34:17.748Z,-1.00
2018-12-13T01:36:45.229Z,-1.00
2018-12-13T01:39:12.703Z,-1.00
2018-12-13T01:41:40.211Z,-1.00
2018-12-13T01:44:07.727Z,-1.00
2018-12-13T01:46:35.275Z,-1.10
2018-12-13T01:51:30.264Z,-1.10
2018-12-13T01:53:57.712Z,-1.10
2018-12-13T01:56:25.171Z,-1.20
2018-12-13T02:01:20.130Z,-1.30
2018-12-13T02:03:47.663Z,-1.30
2018-12-13T02:06:15.107Z,-1.30
2018-12-13T02:08:42.547Z,-1.30
2018-12-13T02:13:37.447Z,-1.30
2018-12-13T02:16:04.932Z,-1.30
2018-12-13T02:21:00.983Z,-1.30
2018-12-13T02:25:55.961Z,-1.20
2018-12-13T02:28:23.454Z,-1.20
2018-12-13T02:33:18.436Z,-1.10
2018-12-13T02:35:45.954Z,-1.10
2018-12-13T02:38:13.415Z,-1.10
2018-12-13T02:40:40.971Z,-1.10
2018-12-13T02:43:08.395Z,-1.10
2018-12-13T02:45:35.847Z,-1.20
2018-12-13T02:48:03.348Z,-1.10
2018-12-13T02:52:58.243Z,-1.00
2018-12-13T03:00:20.766Z,-0.90
2018-12-13T03:02:48.310Z,-0.90
2018-12-13T03:05:15.771Z,-0.90
2018-12-13T03:07:43.251Z,-0.90
2018-12-13T03:10:10.722Z,-0.80
2018-12-13T03:12:38.171Z,-0.80
2018-12-13T03:15:05.695Z,-0.80
2018-12-13T03:17:33.153Z,-0.80
2018-12-13T03:22:28.073Z,-0.80
2018-12-13T03:29:50.547Z,-0.80
2018-12-13T03:32:18.028Z,-0.80
2018-12-13T03:34:45.476Z,-0.70
2018-12-13T03:37:12.933Z,-0.70
2018-12-13T03:39:40.388Z,-0.70
2018-12-13T03:44:35.415Z,-0.70
2018-12-13T03:51:57.800Z,-0.70
2018-12-13T03:54:25.360Z,-0.70
2018-12-13T04:01:47.756Z,-0.70
2018-12-13T04:04:15.200Z,-0.70
2018-12-13T04:06:42.687Z,-0.70
2018-12-13T04:09:10.135Z,-0.70
2018-12-13T04:11:37.623Z,-0.70
2018-12-13T04:14:05.071Z,-0.70
2018-12-13T04:18:59.991Z,-0.70
2018-12-13T04:21:27.441Z,-0.70
2018-12-13T04:26:22.456Z,-0.70
2018-12-13T04:28:49.910Z,-0.70
2018-12-13T04:31:17.380Z,-0.70
2018-12-13T04:33:44.831Z,-0.80
2018-12-13T04:36:13.485Z,-0.80
2018-12-13T04:38:41.148Z,-0.80
2018-12-13T04:41:08.592Z,-0.80
2018-12-13T04:43:36.068Z,-0.80
2018-12-13T04:46:03.546Z,-0.70
2018-12-13T04:48:31.045Z,-0.70
2018-12-13T04:53:26.024Z,-0.80
2018-12-13T04:55:53.471Z,-0.80
2018-12-13T05:00:48.367Z,-0.80
2018-12-13T05:03:15.848Z,-0.80
2018-12-13T05:08:10.766Z,-0.90
2018-12-13T05:10:50.506Z,-1.00
2018-12-13T05:13:18.311Z,-1.00
2018-12-13T05:15:45.775Z,-1.00
2018-12-13T05:18:13.447Z,-1.00
2018-12-13T05:20:40.901Z,-1.00
2018-12-13T05:23:08.409Z,-1.00
2018-12-13T05:25:35.979Z,-1.00
2018-12-13T05:28:03.465Z,-1.00
2018-12-13T05:30:30.906Z,-1.00
2018-12-13T05:35:25.820Z,-1.00
2018-12-13T05:37:53.277Z,-1.00
2018-12-13T05:40:20.723Z,-1.00
2018-12-13T05:42:48.171Z,-0.90
2018-12-13T05:45:15.616Z,-1.00
2018-12-13T05:47:43.125Z,-1.00
2018-12-13T05:52:38.069Z,-1.00
2018-12-13T05:55:05.594Z,-1.00
2018-12-13T06:00:00.515Z,-1.00
2018-12-13T06:02:27.984Z,-1.00
2018-12-13T06:04:55.439Z,-1.00
2018-12-13T06:07:22.885Z,-1.00
2018-12-13T06:09:50.347Z,-1.00
2018-12-13T06:12:17.797Z,-1.00
2018-12-13T06:14:45.247Z,-1.00
2018-12-13T06:17:12.687Z,-1.00
2018-12-13T06:19:40.150Z,-1.00
2018-12-13T06:22:07.589Z,-1.00
2018-12-13T06:24:35.136Z,-1.00
2018-12-13T06:29:30.088Z,-1.00
2018-12-13T06:31:57.541Z,-1.00
2018-12-13T06:34:25.025Z,-1.00
2018-12-13T06:36:52.569Z,-1.00
2018-12-13T06:39:20.113Z,-1.00
2018-12-13T06:41:47.587Z,-1.00
2018-12-13T06:44:15.044Z,-0.90
2018-12-13T06:49:09.940Z,-0.90
2018-12-13T06:51:37.388Z,-0.90
2018-12-13T06:56:32.295Z,-0.90
2018-12-13T06:58:59.756Z,-0.90
2018-12-13T07:01:27.309Z,-0.90
2018-12-13T07:03:54.735Z,-0.90
2018-12-13T07:06:22.175Z,-0.90
2018-12-13T07:08:49.739Z,-0.90
2018-12-13T07:11:17.187Z,-0.90
2018-12-13T07:13:44.635Z,-0.90
2018-12-13T07:16:12.096Z,-0.80
2018-12-13T07:18:39.535Z,-0.80
2018-12-13T07:23:34.463Z,-0.80
2018-12-13T07:26:01.919Z,-0.80
2018-12-13T07:30:56.815Z,-0.80
2018-12-13T07:33:24.275Z,-0.80
2018-12-13T07:35:51.725Z,-0.70
2018-12-13T07:38:19.203Z,-0.80
2018-12-13T07:40:46.684Z,-0.80
2018-12-13T07:43:14.272Z,-0.80
2018-12-13T07:45:41.723Z,-0.80
2018-12-13T07:48:09.172Z,-0.80
2018-12-13T07:53:04.107Z,-0.80
2018-12-13T07:55:31.599Z,-0.70
2018-12-13T08:00:26.532Z,-0.70
2018-12-13T08:05:21.431Z,-0.70
2018-12-13T08:10:16.410Z,-0.70
2018-12-13T08:12:43.866Z,-0.70
2018-12-13T08:15:11.371Z,-0.70
2018-12-13T08:17:38.823Z,-0.80
2018-12-13T08:22:33.772Z,-0.80
2018-12-13T08:25:01.262Z,-0.80
2018-12-13T08:29:56.147Z,-0.90
2018-12-13T08:32:23.667Z,-0.80
2018-12-13T08:34:51.123Z,-0.80
2018-12-13T08:37:18.583Z,-0.80
2018-12-13T08:39:46.117Z,-0.80
2018-12-13T08:42:13.564Z,-0.80
2018-12-13T08:49:36.059Z,-0.60
2018-12-13T08:52:03.551Z,-0.50
2018-12-13T08:56:58.509Z,-0.60
2018-12-13T08:59:25.958Z,-0.60
2018-12-13T09:01:53.412Z,-0.60
2018-12-13T09:04:20.891Z,-0.50
2018-12-13T09:06:48.471Z,-0.50
2018-12-13T09:09:15.919Z,-0.50
2018-12-13T09:11:43.388Z,-0.50
2018-12-13T09:14:10.864Z,-0.50
2018-12-13T09:19:05.775Z,-0.40
2018-12-13T09:21:33.265Z,-0.40
2018-12-13T09:26:28.180Z,-0.30
2018-12-13T09:28:55.620Z,-0.30
2018-12-13T09:31:23.076Z,-0.30
2018-12-13T09:33:50.523Z,-0.30
2018-12-13T09:36:17.986Z,-0.30
2018-12-13T09:38:45.462Z,-0.30
2018-12-13T09:43:40.354Z,-0.30
2018-12-13T09:46:07.811Z,-0.30
2018-12-13T09:53:30.267Z,-0.30
2018-12-13T09:55:57.804Z,-0.30
2018-12-13T09:58:25.284Z,-0.20
2018-12-13T10:00:52.820Z,-0.30
2018-12-13T10:03:20.253Z,-0.30
2018-12-13T10:05:47.735Z,-0.30
2018-12-13T10:08:15.190Z,-0.30
2018-12-13T10:10:42.680Z,-0.30
2018-12-13T10:13:10.774Z,-0.30
2018-12-13T10:18:06.002Z,-0.30
2018-12-13T10:20:33.541Z,-0.30
2018-12-13T10:25:28.517Z,-0.30
2018-12-13T10:27:55.986Z,-0.30
2018-12-13T10:30:23.476Z,-0.30
2018-12-13T10:32:50.947Z,-0.30
2018-12-13T10:35:18.405Z,-0.30
2018-12-13T10:37:45.927Z,-0.30
2018-12-13T10:40:13.510Z,-0.30
2018-12-13T10:42:40.991Z,-0.30
2018-12-13T10:47:36.032Z,-0.30
2018-12-13T10:50:05.364Z,-0.30
2018-12-13T10:55:00.291Z,-0.40
2018-12-13T10:57:27.767Z,-0.40
2018-12-13T10:59:55.256Z,-0.40
2018-12-13T11:02:39.610Z,-0.40
2018-12-13T11:05:15.946Z,-0.40
2018-12-13T11:07:43.427Z,-0.40
2018-12-13T11:10:10.913Z,-0.30
2018-12-13T11:15:05.857Z,-0.30
2018-12-13T11:17:33.331Z,-0.30
2018-12-13T11:22:28.268Z,-0.20
2018-12-13T11:24:55.736Z,-0.20
2018-12-13T11:30:01.170Z,-0.30
2018-12-13T11:32:28.797Z,-0.40
2018-12-13T11:34:56.269Z,-0.40
2018-12-13T11:37:23.719Z,-0.40
2018-12-13T11:39:51.167Z,-0.40
2018-12-13T11:42:18.699Z,-0.40
2018-12-13T11:47:17.230Z,-0.50
2018-12-13T11:52:12.163Z,-0.50
2018-12-13T11:57:08.023Z,-0.60
2018-12-13T11:59:35.475Z,-0.60
2018-12-13T12:02:02.967Z,-0.60
2018-12-13T12:04:30.416Z,-0.60
2018-12-13T12:06:57.879Z,-0.60
2018-12-13T12:09:25.331Z,-0.60
2018-12-13T12:16:47.684Z,-0.60
2018-12-13T12:19:15.224Z,-0.60
2018-12-13T12:24:10.216Z,-0.60
2018-12-13T12:31:32.627Z,-0.70
2018-12-13T12:34:00.084Z,-0.70
2018-12-13T12:36:27.560Z,-0.80
2018-12-13T12:38:55.011Z,-0.80
2018-12-13T12:41:22.476Z,-0.80
2018-12-13T12:43:49.951Z,-0.70
2018-12-13T12:48:44.863Z,-0.80
2018-12-13T12:53:39.760Z,-0.80
2018-12-13T12:56:07.369Z,-0.80
2018-12-13T13:01:02.285Z,-0.80
2018-12-13T13:03:29.741Z,-0.80
2018-12-13T13:05:57.241Z,-0.80
2018-12-13T13:08:24.699Z,-0.80
2018-12-13T13:13:19.594Z,-0.80
2018-12-13T13:15:47.064Z,-0.80
2018-12-13T13:23:09.468Z,-0.80
2018-12-13T13:28:04.395Z,-0.80
2018-12-13T13:30:31.840Z,-0.90
2018-12-13T13:32:59.383Z,-0.90
2018-12-13T13:35:26.845Z,-0.90
2018-12-13T13:37:54.304Z,-0.90
2018-12-13T13:40:21.745Z,-0.80
2018-12-13T13:52:39.126Z,-0.90
2018-12-13T13:57:34.062Z,-0.90
2018-12-13T14:00:01.499Z,-0.80
2018-12-13T14:02:28.959Z,-0.80
2018-12-13T14:04:56.456Z,-0.80
2018-12-13T14:07:23.918Z,-0.80
2018-12-13T14:09:51.368Z,-0.90
2018-12-13T14:12:18.824Z,-0.80
2018-12-13T14:17:13.731Z,-0.80
2018-12-13T14:19:41.232Z,-0.90
2018-12-13T14:24:36.202Z,-0.90
2018-12-13T14:27:04.031Z,-0.90
2018-12-13T14:31:59.015Z,-1.00
2018-12-13T14:34:26.467Z,-1.00
2018-12-13T14:36:53.978Z,-1.00
2018-12-13T14:39:21.488Z,-1.00
2018-12-13T14:41:49.112Z,-1.00
2018-12-13T14:49:11.503Z,-1.00
2018-12-13T14:54:06.523Z,-1.10
2018-12-13T14:56:34.021Z,-1.10
2018-12-13T15:03:56.459Z,-1.10
2018-12-13T15:06:23.955Z,-1.20
2018-12-13T15:08:51.493Z,-1.10
2018-12-13T15:11:18.938Z,-1.20
2018-12-13T15:13:46.467Z,-1.20
2018-12-13T15:16:13.981Z,-1.20
2018-12-13T15:18:41.427Z,-1.20
2018-12-13T15:21:08.899Z,-1.20
2018-12-13T15:23:36.352Z,-1.20
2018-12-13T15:26:03.828Z,-1.20
2018-12-13T15:28:31.304Z,-1.20
2018-12-13T15:30:58.748Z,-1.20
2018-12-13T15:33:26.255Z,-1.30
2018-12-13T15:35:53.723Z,-1.30
2018-12-13T15:38:21.172Z,-1.30
2018-12-13T15:40:48.631Z,-1.30
2018-12-13T15:43:16.081Z,-1.30
2018-12-13T15:45:43.556Z,-1.30
2018-12-13T15:48:11.013Z,-1.30
2018-12-13T15:53:05.964Z,-1.30
2018-12-13T15:55:33.444Z,-1.30
2018-12-13T16:00:28.343Z,-1.20
2018-12-13T16:02:55.800Z,-1.20
2018-12-13T16:05:23.292Z,-1.20
2018-12-13T16:07:50.750Z,-1.20
2018-12-13T16:10:18.195Z,-1.20
2018-12-13T16:12:45.646Z,-1.20
2018-12-13T16:17:47.104Z,-1.20
2018-12-13T16:22:42.061Z,-1.20
2018-12-13T16:34:59.923Z,-1.20
2018-12-13T16:39:54.938Z,-1.20
2018-12-13T16:42:22.375Z,-1.20
2018-12-13T16:44:49.869Z,-1.20
2018-12-13T16:47:17.456Z,-1.20
2018-12-13T16:49:44.984Z,-1.20
2018-12-13T16:52:12.451Z,-1.20
2018-12-13T16:57:07.355Z,-1.20
2018-12-13T16:59:34.835Z,-1.10
2018-12-13T17:02:02.286Z,-1.20
2018-12-13T17:04:29.740Z,-1.20
2018-12-13T17:06:57.196Z,-1.20
2018-12-13T17:09:24.651Z,-1.20
2018-12-13T17:11:52.176Z,-1.10
2018-12-13T17:16:47.118Z,-1.10
2018-12-13T17:21:42.023Z,-1.10
2018-12-13T17:24:09.481Z,-1.10
2018-12-13T17:29:04.373Z,-1.10
2018-12-13T17:31:31.862Z,-1.10
2018-12-13T17:33:59.303Z,-1.10
2018-12-13T17:36:26.755Z,-1.00
2018-12-13T17:38:54.207Z,-1.00
2018-12-13T17:41:21.651Z,-1.00
2018-12-13T17:43:49.108Z,-1.00
2018-12-13T17:48:44.044Z,-0.90
2018-12-13T17:51:11.518Z,-0.90
2018-12-13T17:56:06.435Z,-0.90
2018-12-13T18:01:01.338Z,-0.90
2018-12-13T18:03:28.785Z,-0.90
2018-12-13T18:05:56.348Z,-0.90
2018-12-13T18:08:23.850Z,-0.90
2018-12-13T18:10:51.343Z,-0.90
2018-12-13T18:13:18.787Z,-0.90
2018-12-13T18:18:13.700Z,-0.90
2018-12-13T18:20:41.177Z,-0.90
2018-12-13T18:25:36.171Z,-0.90
2018-12-13T18:28:03.624Z,-0.90
2018-12-13T18:30:31.110Z,-0.90
2018-12-13T18:32:58.568Z,-1.00
2018-12-13T18:35:26.051Z,-1.00
2018-12-13T18:37:53.496Z,-0.90
2018-12-13T18:40:20.943Z,-0.90
2018-12-13T18:42:48.386Z,-0.90
2018-12-13T18:45:15.879Z,-0.90
2018-12-13T18:47:43.336Z,-0.90
2018-12-13T18:52:38.264Z,-0.90
2018-12-13T18:55:05.766Z,-0.90
2018-12-13T18:57:33.215Z,-0.90
2018-12-13T19:00:00.697Z,-0.90
2018-12-13T19:02:28.199Z,-0.90
2018-12-13T19:04:55.652Z,-0.80
2018-12-13T19:07:23.095Z,-0.90
2018-12-13T19:09:50.551Z,-0.80
2018-12-13T19:12:18.051Z,-0.80
2018-12-13T19:14:45.516Z,-0.80
2018-12-13T19:17:12.964Z,-0.80
2018-12-13T19:22:07.867Z,-0.80
2018-12-13T19:24:35.371Z,-0.80
2018-12-13T19:29:30.278Z,-0.80
2018-12-13T19:31:57.728Z,-0.80
2018-12-13T19:34:25.202Z,-0.80
2018-12-13T19:36:52.724Z,-0.80
2018-12-13T19:39:20.171Z,-0.80
2018-12-13T19:41:47.626Z,-0.80
2018-12-13T19:44:15.087Z,-0.80
2018-12-13T19:49:10.132Z,-0.70
2018-12-13T19:51:37.627Z,-0.70
2018-12-13T19:56:32.541Z,-0.70
2018-12-13T19:58:59.994Z,-0.70
2018-12-13T20:01:27.447Z,-0.70
2018-12-13T20:03:54.963Z,-0.70
2018-12-13T20:06:22.423Z,-0.70
2018-12-13T20:08:49.875Z,-0.80
2018-12-13T20:11:17.328Z,-0.80
2018-12-13T20:13:44.805Z,-0.80
2018-12-13T20:18:39.716Z,-0.80
2018-12-13T20:21:07.222Z,-0.70
2018-12-13T20:26:02.118Z,-0.70
2018-12-13T20:28:29.562Z,-0.70
2018-12-13T20:30:57.023Z,-0.70
2018-12-13T20:33:24.474Z,-0.70
2018-12-13T20:35:51.971Z,-0.70
2018-12-13T20:38:19.424Z,-0.70
2018-12-13T20:40:46.941Z,-0.70
2018-12-13T20:43:14.475Z,-0.70
2018-12-13T20:45:41.947Z,-0.70
2018-12-13T20:48:09.406Z,-0.70
2018-12-13T20:53:04.319Z,-0.70
2018-12-13T20:55:31.771Z,-0.70
2018-12-13T21:00:26.719Z,-0.70
2018-12-13T21:02:54.231Z,-0.70
2018-12-13T21:07:49.197Z,-0.70
2018-12-13T21:10:16.641Z,-0.70
2018-12-13T21:12:44.099Z,-0.70
2018-12-13T21:17:39.040Z,-0.70
2018-12-13T21:22:34.083Z,-0.70
2018-12-13T21:25:01.568Z,-0.70
2018-12-13T21:29:56.582Z,-0.70
2018-12-13T21:32:24.036Z,-0.70
2018-12-13T21:34:51.515Z,-0.70
2018-12-13T21:37:19.027Z,-0.70
2018-12-13T21:42:13.979Z,-0.70
2018-12-13T21:47:08.935Z,-0.60
2018-12-13T21:52:03.865Z,-0.60
2018-12-13T21:54:31.311Z,-0.60
2018-12-13T21:59:26.271Z,-0.60
2018-12-13T22:04:21.248Z,-0.60
2018-12-13T22:06:48.763Z,-0.60
2018-12-13T22:09:16.219Z,-0.70
2018-12-13T22:14:11.259Z,-0.80
2018-12-13T22:19:06.235Z,-0.70
2018-12-13T22:21:33.715Z,-0.70
2018-12-13T22:24:01.203Z,-0.70
2018-12-13T22:28:56.124Z,-0.70
2018-12-13T22:31:23.574Z,-0.70
2018-12-13T22:33:51.031Z,-0.70
2018-12-13T22:36:18.479Z,-0.70
2018-12-13T22:38:46.847Z,-0.70
2018-12-13T22:41:14.295Z,-0.70
2018-12-13T22:43:41.756Z,-0.70
2018-12-13T22:46:09.260Z,-0.70
2018-12-13T22:51:04.257Z,-0.70
2018-12-13T22:53:31.713Z,-0.70
2018-12-13T22:55:59.320Z,-0.70
2018-12-13T23:03:21.799Z,-0.70
2018-12-13T23:05:49.251Z,-0.70
2018-12-13T23:08:16.704Z,-0.70
2018-12-13T23:10:44.192Z,-0.70
2018-12-13T23:13:11.700Z,-0.70
2018-12-13T23:15:39.143Z,-0.70
2018-12-13T23:20:34.059Z,-0.70
2018-12-13T23:23:01.517Z,-0.70
2018-12-13T23:27:56.455Z,-0.70
2018-12-13T23:32:51.416Z,-0.70
2018-12-13T23:35:18.868Z,-0.70
2018-12-13T23:37:46.331Z,-0.70
2018-12-13T23:40:13.820Z,-0.70
2018-12-13T23:42:41.332Z,-0.70
2018-12-13T23:45:08.863Z,-0.70
2018-12-13T23:50:04.744Z,-0.70
2018-12-13T23:54:59.687Z,-0.70
2018-12-13T23:59:54.600Z,-0.70
